Pulpca — PHMT — position and weather

sailwx.info

Track history (hours):
 
Tides and Currents Weather Stations Pressure Air Temp Water Temp Dewpoint Dewpoint Depression Visibility Wind Speed Wind Dir Waves Ship Positions

Pulpca

Last reported at 2016-Jul-26 13:33 UTC. Time now 2016-Jul-26 14:11 UTC.
Position N 60°05' E 028°24'.

Length 205 m; draft 6.8 m.

Type: Ship (hazmat cat A). MMSI: 245097000.

Date/timePositionNaut miles runAvg speedWind from/ knotsBaromVisibWave heightAir tempDewpointWater temp
2016-Jul-26 13:33N 60°05' E 028°24'1312.7
2016-Jul-26 12:33N 60°03' E 028°49'1412.9
2016-Jul-26 11:30N 60°02' E 029°16'1111.3
2016-Jul-26 10:33N 60°00' E 029°37'1111.0
2016-Jul-26 09:33N 59°56' E 029°58'8 8.0
2016-Jul-26 08:33N 59°53' E 030°13'0 0.5
2016-Jul-26 07:31N 59°54' E 030°14'0 0.0
2016-Jul-26 06:31N 59°54' E 030°14'0 0.0
2016-Jul-26 05:31N 59°54' E 030°14'0 0.0
2016-Jul-26 04:31N 59°54' E 030°14'0 0.0
2016-Jul-26 03:31N 59°54' E 030°14'0 0.0
2016-Jul-26 02:31N 59°54' E 030°14'0 0.0
2016-Jul-26 01:31N 59°54' E 030°14'0 0.0
2016-Jul-26 00:31N 59°54' E 030°14'0 0.0
2016-Jul-25 23:31N 59°54' E 030°14'0 0.0
2016-Jul-25 22:31N 59°54' E 030°14'0 0.0
2016-Jul-25 21:31N 59°54' E 030°14'0 0.0
2016-Jul-25 20:31N 59°54' E 030°14'0 0.0
2016-Jul-25 19:31N 59°54' E 030°14'0 0.0
2016-Jul-25 18:31N 59°54' E 030°14'0 0.0
2016-Jul-25 17:31N 59°54' E 030°14'0 0.0
2016-Jul-25 16:25N 59°54' E 030°14'0 0.0
2016-Jul-25 15:28N 59°54' E 030°14'2 1.8
2016-Jul-25 14:33N 59°53' E 030°10'9 8.7
2016-Jul-25 13:33N 59°56' E 029°55'1111.1
2016-Jul-25 12:33N 60°01' E 029°34'10 9.8
2016-Jul-25 11:33N 60°01' E 029°15'1111.4
2016-Jul-25 10:33N 60°02' E 028°52'1211.5
2016-Jul-25 09:33N 60°02' E 028°29'1212.5
2016-Jul-25 08:34N 60°08' E 028°06'1212.5
2016-Jul-25 07:33N 60°09' E 027°41'1312.8
2016-Jul-25 06:33N 60°02' E 027°19'1212.3
2016-Jul-25 05:33N 59°58' E 026°56'1312.8
2016-Jul-25 04:33N 59°59' E 026°31'1413.1
2016-Jul-25 03:30N 59°55' E 026°04'1212.9
2016-Jul-25 02:33N 59°52' E 025°40'1513.1
2016-Jul-25 01:23N 59°49' E 025°10'1113.5
2016-Jul-25 00:32N 59°47' E 024°48'1313.3
2016-Jul-24 23:33N 59°44' E 024°23'1512.9
2016-Jul-24 22:25N 59°42' E 023°54'1113.0
2016-Jul-24 21:34N 59°42' E 023°32'1313.2
2016-Jul-24 20:33N 59°43' E 023°05'7 1.8
2016-Jul-24 16:27N 59°49' E 022°57'1416.2
2016-Jul-24 15:33N 59°34' E 022°56'25120.9
2016-Jul-24 03:32N 56°27' E 017°40'2221.1
2016-Jul-24 02:28N 56°12' E 017°10'3021.1
2016-Jul-24 01:03N 55°56' E 016°24'1021.2
2016-Jul-24 00:33N 55°51' E 016°09'2421.0
2016-Jul-23 23:26N 55°39' E 015°32'1821.1
2016-Jul-23 22:34N 55°30' E 015°03'2120.8
2016-Jul-23 21:34N 55°19' E 014°33'2121.3
2016-Jul-23 20:33N 55°02' E 014°09'2121.2
2016-Jul-23 19:33N 54°55' E 013°34'2121.1
2016-Jul-23 18:34N 54°47' E 012°60'2020.1
2016-Jul-23 17:34N 54°39' E 012°28'1919.4
2016-Jul-23 16:34N 54°25' E 012°06'2020.2
2016-Jul-23 15:34N 54°16' E 011°35'2121.0
2016-Jul-23 14:34N 54°04' E 011°05'15 1.3
2016-Jul-23 03:25N 53°54' E 010°47'5 5.8
2016-Jul-23 02:33N 53°58' E 010°53'1514.5
2016-Jul-23 01:33N 54°08' E 011°10'1716.6
2016-Jul-23 00:33N 54°17' E 011°34'1918.8
2016-Jul-22 23:33N 54°26' E 012°02'1716.5
2016-Jul-22 22:33N 54°38' E 012°21'1818.5
2016-Jul-22 21:33N 54°48' E 012°49'1818.2
2016-Jul-22 20:33N 54°54' E 013°18'1818.1
2016-Jul-22 19:33N 55°01' E 013°47'1817.6
2016-Jul-22 18:34N 55°10' E 014°14'1918.5
2016-Jul-22 17:33N 55°25' E 014°34'1818.2
2016-Jul-22 16:33N 55°34' E 015°02'2217.7
2016-Jul-22 15:18N 55°45' E 015°36'2117.9
2016-Jul-22 14:06N 55°56' E 016°09'318 9.1
2016-Jul-21 03:10N 59°49' E 022°56'812.4
2016-Jul-21 02:33N 59°43' E 023°05'1918.9
2016-Jul-21 01:33N 59°28' E 022°42'2020.0
2016-Jul-21 00:34N 59°16' E 022°11'2019.9
2016-Jul-20 23:34N 59°03' E 021°42'18218.2
2016-Jul-20 13:33N 56°41' E 018°08'3718.6
2016-Jul-20 11:33N 56°17' E 017°17'1918.7
2016-Jul-20 10:34N 56°05' E 016°51'1918.8
2016-Jul-20 09:34N 55°56' E 016°22'1918.7
2016-Jul-20 08:33N 55°46' E 015°53'1918.7
2016-Jul-20 07:33N 55°37' E 015°23'1918.8
2016-Jul-20 06:34N 55°29' E 014°54'1918.8
2016-Jul-20 05:34N 55°16' E 014°29'1918.7
2016-Jul-20 04:34N 55°02' E 014°09'1918.6
2016-Jul-20 03:33N 54°55' E 013°38'1918.8
2016-Jul-20 02:33N 54°49' E 013°07'1918.6
2016-Jul-20 01:31N 54°42' E 012°37'1818.5
2016-Jul-20 00:34N 54°29' E 012°15'1817.7
2016-Jul-19 23:33N 54°20' E 011°48'1918.5
2016-Jul-19 22:33N 54°11' E 011°21'3 0.1
2016-Jul-18 03:34N 54°11' E 011°16'2121.2
2016-Jul-18 02:34N 54°22' E 011°47'1818.0
2016-Jul-18 01:33N 54°31' E 012°13'5718.8
2016-Jul-17 22:32N 54°44' E 013°49'2121.0
2016-Jul-17 21:33N 54°38' E 014°23'2220.9
2016-Jul-17 20:30N 54°40' E 015°01'10721.2
2016-Jul-17 15:27N 54°56' E 018°05'1820.4
2016-Jul-17 14:34N 54°56' E 018°36'1919.1
2016-Jul-17 13:34N 54°41' E 018°58'1716.8
2016-Jul-17 12:33N 54°32' E 018°34'1 1.3
2016-Jul-17 11:33N 54°32' E 018°32'0 0.0
2016-Jul-17 10:31N 54°32' E 018°32'0 0.0
2016-Jul-17 09:31N 54°32' E 018°32'0 0.0
2016-Jul-17 08:31N 54°32' E 018°32'0 0.0
2016-Jul-17 07:31N 54°32' E 018°32'0 0.2
2016-Jul-17 06:33N 54°32' E 018°32'2813.9
2016-Jul-17 04:34N 54°53' E 019°04'2121.1
2016-Jul-17 03:33N 55°13' E 019°15'  
Track history (hours):
 
Tides and Currents Weather Stations Pressure Air Temp Water Temp Dewpoint Dewpoint Depression Visibility Wind Speed Wind Dir Waves Ship Positions

Pulpca

Last reported at 2016-Jul-26 13:33 UTC. Time now 2016-Jul-26 14:11 UTC.
Position N 60°05' E 028°24'.

Length 205 m; draft 6.8 m.

Type: Ship (hazmat cat A). MMSI: 245097000.

Date/timePositionNaut miles runAvg speedWind from/ knotsBaromVisibWave heightAir tempDewpointWater temp
2016-Jul-26 13:33N 60°05' E 028°24'1312.7
2016-Jul-26 12:33N 60°03' E 028°49'1412.9
2016-Jul-26 11:30N 60°02' E 029°16'1111.3
2016-Jul-26 10:33N 60°00' E 029°37'1111.0
2016-Jul-26 09:33N 59°56' E 029°58'8 8.0
2016-Jul-26 08:33N 59°53' E 030°13'0 0.5
2016-Jul-26 07:31N 59°54' E 030°14'0 0.0
2016-Jul-26 06:31N 59°54' E 030°14'0 0.0
2016-Jul-26 05:31N 59°54' E 030°14'0 0.0
2016-Jul-26 04:31N 59°54' E 030°14'0 0.0
2016-Jul-26 03:31N 59°54' E 030°14'0 0.0
2016-Jul-26 02:31N 59°54' E 030°14'0 0.0
2016-Jul-26 01:31N 59°54' E 030°14'0 0.0
2016-Jul-26 00:31N 59°54' E 030°14'0 0.0
2016-Jul-25 23:31N 59°54' E 030°14'0 0.0
2016-Jul-25 22:31N 59°54' E 030°14'0 0.0
2016-Jul-25 21:31N 59°54' E 030°14'0 0.0
2016-Jul-25 20:31N 59°54' E 030°14'0 0.0
2016-Jul-25 19:31N 59°54' E 030°14'0 0.0
2016-Jul-25 18:31N 59°54' E 030°14'0 0.0
2016-Jul-25 17:31N 59°54' E 030°14'0 0.0
2016-Jul-25 16:25N 59°54' E 030°14'0 0.0
2016-Jul-25 15:28N 59°54' E 030°14'2 1.8
2016-Jul-25 14:33N 59°53' E 030°10'9 8.7
2016-Jul-25 13:33N 59°56' E 029°55'1111.1
2016-Jul-25 12:33N 60°01' E 029°34'10 9.8
2016-Jul-25 11:33N 60°01' E 029°15'1111.4
2016-Jul-25 10:33N 60°02' E 028°52'1211.5
2016-Jul-25 09:33N 60°02' E 028°29'1212.5
2016-Jul-25 08:34N 60°08' E 028°06'1212.5
2016-Jul-25 07:33N 60°09' E 027°41'1312.8
2016-Jul-25 06:33N 60°02' E 027°19'1212.3
2016-Jul-25 05:33N 59°58' E 026°56'1312.8
2016-Jul-25 04:33N 59°59' E 026°31'1413.1
2016-Jul-25 03:30N 59°55' E 026°04'1212.9
2016-Jul-25 02:33N 59°52' E 025°40'1513.1
2016-Jul-25 01:23N 59°49' E 025°10'1113.5
2016-Jul-25 00:32N 59°47' E 024°48'1313.3
2016-Jul-24 23:33N 59°44' E 024°23'1512.9
2016-Jul-24 22:25N 59°42' E 023°54'1113.0
2016-Jul-24 21:34N 59°42' E 023°32'1313.2
2016-Jul-24 20:33N 59°43' E 023°05'7 1.8
2016-Jul-24 16:27N 59°49' E 022°57'1416.2
2016-Jul-24 15:33N 59°34' E 022°56'25120.9
2016-Jul-24 03:32N 56°27' E 017°40'2221.1
2016-Jul-24 02:28N 56°12' E 017°10'3021.1
2016-Jul-24 01:03N 55°56' E 016°24'1021.2
2016-Jul-24 00:33N 55°51' E 016°09'2421.0
2016-Jul-23 23:26N 55°39' E 015°32'1821.1
2016-Jul-23 22:34N 55°30' E 015°03'2120.8
2016-Jul-23 21:34N 55°19' E 014°33'2121.3
2016-Jul-23 20:33N 55°02' E 014°09'2121.2
2016-Jul-23 19:33N 54°55' E 013°34'2121.1
2016-Jul-23 18:34N 54°47' E 012°60'2020.1
2016-Jul-23 17:34N 54°39' E 012°28'1919.4
2016-Jul-23 16:34N 54°25' E 012°06'2020.2
2016-Jul-23 15:34N 54°16' E 011°35'2121.0
2016-Jul-23 14:34N 54°04' E 011°05'15 1.3
2016-Jul-23 03:25N 53°54' E 010°47'5 5.8
2016-Jul-23 02:33N 53°58' E 010°53'1514.5
2016-Jul-23 01:33N 54°08' E 011°10'1716.6
2016-Jul-23 00:33N 54°17' E 011°34'1918.8
2016-Jul-22 23:33N 54°26' E 012°02'1716.5
2016-Jul-22 22:33N 54°38' E 012°21'1818.5
2016-Jul-22 21:33N 54°48' E 012°49'1818.2
2016-Jul-22 20:33N 54°54' E 013°18'1818.1
2016-Jul-22 19:33N 55°01' E 013°47'1817.6
2016-Jul-22 18:34N 55°10' E 014°14'1918.5
2016-Jul-22 17:33N 55°25' E 014°34'1818.2
2016-Jul-22 16:33N 55°34' E 015°02'2217.7
2016-Jul-22 15:18N 55°45' E 015°36'2117.9
2016-Jul-22 14:06N 55°56' E 016°09'318 9.1
2016-Jul-21 03:10N 59°49' E 022°56'812.4
2016-Jul-21 02:33N 59°43' E 023°05'1918.9
2016-Jul-21 01:33N 59°28' E 022°42'2020.0
2016-Jul-21 00:34N 59°16' E 022°11'2019.9
2016-Jul-20 23:34N 59°03' E 021°42'18218.2
2016-Jul-20 13:33N 56°41' E 018°08'3718.6
2016-Jul-20 11:33N 56°17' E 017°17'1918.7
2016-Jul-20 10:34N 56°05' E 016°51'1918.8
2016-Jul-20 09:34N 55°56' E 016°22'1918.7
2016-Jul-20 08:33N 55°46' E 015°53'1918.7
2016-Jul-20 07:33N 55°37' E 015°23'1918.8
2016-Jul-20 06:34N 55°29' E 014°54'1918.8
2016-Jul-20 05:34N 55°16' E 014°29'1918.7
2016-Jul-20 04:34N 55°02' E 014°09'1918.6
2016-Jul-20 03:33N 54°55' E 013°38'1918.8
2016-Jul-20 02:33N 54°49' E 013°07'1918.6
2016-Jul-20 01:31N 54°42' E 012°37'1818.5
2016-Jul-20 00:34N 54°29' E 012°15'1817.7
2016-Jul-19 23:33N 54°20' E 011°48'1918.5
2016-Jul-19 22:33N 54°11' E 011°21'3 0.1
2016-Jul-18 03:34N 54°11' E 011°16'2121.2
2016-Jul-18 02:34N 54°22' E 011°47'1818.0
2016-Jul-18 01:33N 54°31' E 012°13'5718.8
2016-Jul-17 22:32N 54°44' E 013°49'2121.0
2016-Jul-17 21:33N 54°38' E 014°23'2220.9
2016-Jul-17 20:30N 54°40' E 015°01'10721.2
2016-Jul-17 15:27N 54°56' E 018°05'1820.4
2016-Jul-17 14:34N 54°56' E 018°36'1919.1
2016-Jul-17 13:34N 54°41' E 018°58'1716.8
2016-Jul-17 12:33N 54°32' E 018°34'1 1.3
2016-Jul-17 11:33N 54°32' E 018°32'0 0.0
2016-Jul-17 10:31N 54°32' E 018°32'0 0.0
2016-Jul-17 09:31N 54°32' E 018°32'0 0.0
2016-Jul-17 08:31N 54°32' E 018°32'0 0.0
2016-Jul-17 07:31N 54°32' E 018°32'0 0.2
2016-Jul-17 06:33N 54°32' E 018°32'2813.9
2016-Jul-17 04:34N 54°53' E 019°04'2121.1
2016-Jul-17 03:33N 55°13' E 019°15'  

Dump ship's entire track history